createdAt,value
2018-09-17T00:01:44.842Z,2.97
2018-09-17T00:04:12.484Z,3.30
2018-09-17T00:06:40.118Z,3.40
2018-09-17T00:09:09.378Z,3.63
2018-09-17T00:11:37.294Z,3.17
2018-09-17T00:14:04.829Z,3.50
2018-09-17T00:16:32.566Z,3.40
2018-09-17T00:19:00.220Z,3.57
2018-09-17T00:21:27.839Z,3.40
2018-09-17T00:23:55.426Z,3.40
2018-09-17T00:26:23.063Z,3.23
2018-09-17T00:28:50.711Z,3.20
2018-09-17T00:31:18.347Z,3.80
2018-09-17T00:33:45.973Z,3.43
2018-09-17T00:36:13.537Z,4.07
2018-09-17T00:38:41.297Z,3.17
2018-09-17T00:41:09.138Z,4.03
2018-09-17T00:43:36.915Z,3.47
2018-09-17T00:46:04.584Z,4.37
2018-09-17T00:48:32.234Z,3.67
2018-09-17T00:50:59.854Z,3.67
2018-09-17T00:53:27.498Z,4.00
2018-09-17T00:55:55.142Z,3.40
2018-09-17T00:58:22.771Z,4.13
2018-09-17T01:00:50.426Z,3.60
2018-09-17T01:03:18.060Z,3.53
2018-09-17T01:05:45.686Z,3.53
2018-09-17T01:08:13.319Z,3.90
2018-09-17T01:10:40.951Z,3.33
2018-09-17T01:13:08.671Z,3.90
2018-09-17T01:15:36.297Z,3.77
2018-09-17T01:18:03.930Z,3.73
2018-09-17T01:20:31.607Z,4.37
2018-09-17T01:22:59.266Z,4.20
2018-09-17T01:25:26.891Z,4.27
2018-09-17T01:27:54.507Z,3.60
2018-09-17T01:30:22.183Z,3.83
2018-09-17T01:32:49.808Z,3.80
2018-09-17T01:35:17.356Z,4.23
2018-09-17T01:37:45.007Z,3.80
2018-09-17T01:40:12.660Z,4.33
2018-09-17T01:42:40.209Z,4.40
2018-09-17T01:45:07.782Z,4.40
2018-09-17T01:47:35.435Z,4.33
2018-09-17T01:50:03.293Z,4.60
2018-09-17T01:52:30.914Z,4.17
2018-09-17T01:54:58.533Z,3.83
2018-09-17T01:57:26.163Z,4.40
2018-09-17T01:59:53.770Z,4.63
2018-09-17T02:02:21.395Z,4.40
2018-09-17T02:04:49.049Z,4.37
2018-09-17T02:07:16.678Z,4.87
2018-09-17T02:09:44.374Z,4.60
2018-09-17T02:12:12.810Z,4.50
2018-09-17T02:14:40.969Z,5.13
2018-09-17T02:17:08.634Z,4.23
2018-09-17T02:19:36.708Z,4.00
2018-09-17T02:22:04.286Z,3.60
2018-09-17T02:24:32.091Z,4.23
2018-09-17T02:26:59.617Z,4.93
2018-09-17T02:29:27.129Z,4.80
2018-09-17T02:31:54.799Z,4.33
2018-09-17T02:34:22.428Z,4.20
2018-09-17T02:36:50.526Z,4.40
2018-09-17T02:39:18.127Z,5.13
2018-09-17T02:41:45.730Z,4.40
2018-09-17T02:44:13.363Z,4.63
2018-09-17T02:46:41.011Z,4.73
2018-09-17T02:49:08.782Z,4.87
2018-09-17T02:51:36.306Z,4.43
2018-09-17T02:54:03.835Z,4.70
2018-09-17T02:56:31.451Z,4.27
2018-09-17T02:58:59.086Z,4.30
2018-09-17T03:01:26.778Z,4.23
2018-09-17T03:03:54.417Z,4.00
2018-09-17T03:06:22.035Z,4.57
2018-09-17T03:08:49.751Z,4.70
2018-09-17T03:11:17.238Z,3.90
2018-09-17T03:13:44.887Z,4.07
2018-09-17T03:16:12.570Z,4.20
2018-09-17T03:18:49.595Z,4.43
2018-09-17T03:21:17.125Z,4.70
2018-09-17T03:23:51.513Z,4.00
2018-09-17T03:26:19.457Z,4.23
2018-09-17T03:28:47.038Z,4.63
2018-09-17T03:31:14.652Z,4.60
2018-09-17T03:33:42.370Z,4.80
2018-09-17T03:36:10.055Z,4.77
2018-09-17T03:38:39.245Z,5.17
2018-09-17T03:41:07.618Z,4.47
2018-09-17T03:43:36.098Z,4.60
2018-09-17T03:46:03.676Z,4.60
2018-09-17T03:48:32.212Z,4.23
2018-09-17T03:51:00.251Z,4.50
2018-09-17T03:53:27.984Z,4.50
2018-09-17T03:55:55.558Z,4.93
2018-09-17T03:58:23.209Z,4.70
2018-09-17T04:00:50.854Z,4.70
2018-09-17T04:03:18.491Z,4.70
2018-09-17T04:05:46.178Z,4.20
2018-09-17T04:08:13.793Z,4.60
2018-09-17T04:10:41.373Z,4.63
2018-09-17T04:13:09.587Z,4.60
2018-09-17T04:15:38.200Z,4.23
2018-09-17T04:18:05.869Z,4.67
2018-09-17T04:20:33.378Z,4.30
2018-09-17T04:23:00.901Z,4.47
2018-09-17T04:25:28.426Z,4.23
2018-09-17T04:27:56.086Z,4.30
2018-09-17T04:30:23.739Z,4.70
2018-09-17T04:32:51.783Z,4.43
2018-09-17T04:35:19.426Z,5.00
2018-09-17T04:37:47.075Z,4.67
2018-09-17T04:40:14.743Z,4.83
2018-09-17T04:42:42.274Z,5.03
2018-09-17T04:45:09.953Z,4.70
2018-09-17T04:47:37.565Z,5.13
2018-09-17T04:50:05.142Z,4.70
2018-09-17T04:52:32.773Z,4.87
2018-09-17T04:55:00.850Z,4.60
2018-09-17T04:57:28.556Z,4.13
2018-09-17T04:59:56.098Z,4.97
2018-09-17T05:02:23.676Z,4.40
2018-09-17T05:04:51.252Z,4.90
2018-09-17T05:07:19.440Z,4.50
2018-09-17T05:09:47.197Z,4.97
2018-09-17T05:12:14.951Z,5.07
2018-09-17T05:14:42.565Z,4.50
2018-09-17T05:17:10.102Z,5.23
2018-09-17T05:19:37.625Z,4.87
2018-09-17T05:22:05.159Z,4.60
2018-09-17T05:24:32.683Z,5.60
2018-09-17T05:27:00.286Z,5.10
2018-09-17T05:29:27.955Z,4.27
2018-09-17T05:31:56.020Z,4.73
2018-09-17T05:34:23.623Z,4.17
2018-09-17T05:36:51.350Z,4.33
2018-09-17T05:39:18.953Z,4.10
2018-09-17T05:41:46.598Z,4.50
2018-09-17T05:44:14.234Z,4.60
2018-09-17T05:46:41.867Z,5.03
2018-09-17T05:49:09.579Z,4.00
2018-09-17T05:51:37.310Z,4.30
2018-09-17T05:54:05.003Z,4.58
2018-09-17T05:56:32.737Z,4.35
2018-09-17T05:59:00.388Z,3.98
2018-09-17T06:01:28.017Z,3.75
2018-09-17T06:03:55.766Z,3.75
2018-09-17T06:06:23.503Z,3.87
2018-09-17T06:08:51.146Z,3.52
2018-09-17T06:11:18.852Z,4.97
2018-09-17T06:13:46.462Z,4.15
2018-09-17T06:16:14.084Z,4.70
2018-09-17T06:18:41.742Z,4.30
2018-09-17T06:21:09.524Z,4.12
2018-09-17T06:23:37.231Z,3.98
2018-09-17T06:26:04.889Z,3.50
2018-09-17T06:28:33.068Z,3.52
2018-09-17T06:31:00.714Z,3.72
2018-09-17T06:33:28.366Z,3.40
2018-09-17T06:35:55.990Z,3.40
2018-09-17T06:38:23.606Z,3.40
2018-09-17T06:40:51.248Z,3.22
2018-09-17T06:43:18.896Z,3.02
2018-09-17T06:45:46.699Z,3.50
2018-09-17T06:48:14.298Z,3.45
2018-09-17T06:50:41.921Z,3.30
2018-09-17T06:53:09.550Z,3.45
2018-09-17T06:55:37.142Z,3.02
2018-09-17T06:58:04.775Z,3.50
2018-09-17T07:00:32.464Z,3.58
2018-09-17T07:03:00.111Z,3.62
2018-09-17T07:05:27.735Z,3.75
2018-09-17T07:07:55.384Z,3.62
2018-09-17T07:10:23.018Z,3.42
2018-09-17T07:12:50.669Z,3.55
2018-09-17T07:15:18.628Z,3.00
2018-09-17T07:17:46.296Z,2.55
2018-09-17T07:20:13.942Z,3.35
2018-09-17T07:22:41.574Z,3.17
2018-09-17T07:25:09.344Z,3.10
2018-09-17T07:27:36.950Z,2.90
2018-09-17T07:30:04.694Z,3.12
2018-09-17T07:32:32.439Z,2.72
2018-09-17T07:35:00.126Z,2.67
2018-09-17T07:37:27.793Z,3.10
2018-09-17T07:39:55.442Z,3.37
2018-09-17T07:42:23.046Z,3.37
2018-09-17T07:44:50.653Z,3.10
2018-09-17T07:47:18.276Z,3.30
2018-09-17T07:49:45.950Z,3.25
2018-09-17T07:52:13.754Z,2.92
2018-09-17T07:54:41.388Z,3.10
2018-09-17T07:57:09.160Z,2.62
2018-09-17T07:59:36.802Z,2.42
2018-09-17T08:02:04.594Z,3.22
2018-09-17T08:04:32.187Z,2.85
2018-09-17T08:06:59.807Z,2.87
2018-09-17T08:09:27.415Z,3.35
2018-09-17T08:11:55.098Z,3.10
2018-09-17T08:14:22.766Z,3.25
2018-09-17T08:16:50.490Z,3.27
2018-09-17T08:19:18.026Z,3.62
2018-09-17T08:21:45.545Z,3.17
2018-09-17T08:24:13.150Z,3.35
2018-09-17T08:26:40.783Z,2.98
2018-09-17T08:29:08.595Z,3.10
2018-09-17T08:31:36.190Z,2.83
2018-09-17T08:34:03.719Z,3.02
2018-09-17T08:36:31.265Z,2.85
2018-09-17T08:38:58.778Z,2.90
2018-09-17T08:41:26.315Z,2.70
2018-09-17T08:43:53.918Z,3.15
2018-09-17T08:46:21.591Z,2.87
2018-09-17T08:48:49.244Z,2.55
2018-09-17T08:51:16.901Z,2.62
2018-09-17T08:53:44.513Z,3.10
2018-09-17T08:56:17.627Z,3.10
2018-09-17T08:58:50.918Z,2.90
2018-09-17T09:01:24.040Z,3.37
2018-09-17T09:03:57.243Z,2.85
2018-09-17T09:06:28.679Z,3.30
2018-09-17T09:08:56.454Z,3.25
2018-09-17T09:11:32.591Z,2.83
2018-09-17T09:14:07.562Z,2.85
2018-09-17T09:16:35.415Z,2.75
2018-09-17T09:19:03.042Z,3.12
2018-09-17T09:21:30.738Z,3.02
2018-09-17T09:23:58.364Z,3.05
2018-09-17T09:26:25.987Z,3.00
2018-09-17T09:28:53.634Z,3.00
2018-09-17T09:31:21.271Z,3.10
2018-09-17T09:33:48.951Z,3.17
2018-09-17T09:36:16.553Z,3.00
2018-09-17T09:38:44.167Z,3.55
2018-09-17T09:41:11.795Z,2.67
2018-09-17T09:43:39.416Z,2.90
2018-09-17T09:46:07.054Z,2.98
2018-09-17T09:48:34.738Z,2.75
2018-09-17T09:51:02.374Z,3.10
2018-09-17T09:53:30.018Z,3.25
2018-09-17T09:55:57.654Z,3.05
2018-09-17T09:58:25.286Z,2.90
2018-09-17T10:00:58.555Z,3.17
2018-09-17T10:03:31.727Z,3.00
2018-09-17T10:05:59.352Z,2.65
2018-09-17T10:08:26.971Z,2.80
2018-09-17T10:11:00.187Z,3.10
2018-09-17T10:13:33.515Z,3.20
2018-09-17T10:16:06.666Z,3.15
2018-09-17T10:18:39.850Z,2.87
2018-09-17T10:21:07.508Z,3.15
2018-09-17T10:23:35.154Z,3.40
2018-09-17T10:26:02.813Z,2.85
2018-09-17T10:28:30.452Z,3.40
2018-09-17T10:30:58.107Z,3.20
2018-09-17T10:33:25.774Z,2.60
2018-09-17T10:35:53.412Z,2.67
2018-09-17T10:38:21.048Z,3.17
2018-09-17T10:40:48.694Z,2.60
2018-09-17T10:43:16.353Z,3.17
2018-09-17T10:45:43.983Z,2.65
2018-09-17T10:48:11.639Z,2.75
2018-09-17T10:50:39.290Z,2.77
2018-09-17T10:53:06.947Z,2.67
2018-09-17T10:55:34.567Z,2.62
2018-09-17T10:58:02.202Z,2.30
2018-09-17T11:00:29.858Z,2.12
2018-09-17T11:02:57.507Z,2.30
2018-09-17T11:05:25.159Z,1.80
2018-09-17T11:07:52.843Z,1.82
2018-09-17T11:10:20.470Z,1.80
2018-09-17T11:12:48.086Z,1.85
2018-09-17T11:15:15.761Z,1.92
2018-09-17T11:17:43.557Z,1.92
2018-09-17T11:20:11.169Z,2.60
2018-09-17T11:22:38.847Z,1.62
2018-09-17T11:25:06.632Z,1.82
2018-09-17T11:27:34.305Z,2.12
2018-09-17T11:30:01.945Z,1.62
2018-09-17T11:32:29.623Z,1.82
2018-09-17T11:34:58.110Z,2.00
2018-09-17T11:37:25.718Z,1.85
2018-09-17T11:39:53.349Z,2.20
2018-09-17T11:42:20.959Z,1.65
2018-09-17T11:44:48.597Z,1.98
2018-09-17T11:47:16.233Z,2.08
2018-09-17T11:49:43.846Z,1.45
2018-09-17T11:52:11.448Z,1.50
2018-09-17T11:54:39.102Z,1.62
2018-09-17T11:57:06.758Z,1.50
2018-09-17T11:59:34.386Z,1.70
2018-09-17T12:02:04.407Z,1.85
2018-09-17T12:04:37.682Z,1.72
2018-09-17T12:07:11.037Z,1.65
2018-09-17T12:09:38.667Z,1.85
2018-09-17T12:12:06.259Z,1.70
2018-09-17T12:14:33.898Z,1.80
2018-09-17T12:17:01.515Z,1.72
2018-09-17T12:19:29.136Z,1.87
2018-09-17T12:21:56.738Z,1.50
2018-09-17T12:24:24.402Z,1.47
2018-09-17T12:26:52.007Z,1.75
2018-09-17T12:29:19.649Z,1.50
2018-09-17T12:31:47.226Z,2.02
2018-09-17T12:34:14.840Z,1.87
2018-09-17T12:36:42.469Z,1.60
2018-09-17T12:39:11.036Z,1.60
2018-09-17T12:41:38.667Z,2.20
2018-09-17T12:44:06.278Z,2.13
2018-09-17T12:46:33.878Z,2.10
2018-09-17T12:49:01.494Z,1.98
2018-09-17T12:51:29.115Z,1.55
2018-09-17T12:53:56.786Z,1.60
2018-09-17T12:56:24.442Z,2.05
2018-09-17T12:58:52.103Z,1.47
2018-09-17T13:01:19.749Z,1.80
2018-09-17T13:03:47.397Z,1.65
2018-09-17T13:06:15.014Z,2.05
2018-09-17T13:08:42.632Z,1.60
2018-09-17T13:11:10.257Z,1.55
2018-09-17T13:13:38.791Z,1.77
2018-09-17T13:16:07.003Z,1.47
2018-09-17T13:18:34.663Z,1.62
2018-09-17T13:21:02.346Z,1.47
2018-09-17T13:23:29.969Z,1.72
2018-09-17T13:25:57.610Z,1.90
2018-09-17T13:28:25.238Z,1.80
2018-09-17T13:30:52.862Z,1.67
2018-09-17T13:33:20.505Z,1.35
2018-09-17T13:35:48.175Z,1.80
2018-09-17T13:38:15.772Z,1.75
2018-09-17T13:40:43.411Z,1.60
2018-09-17T13:43:11.098Z,1.92
2018-09-17T13:45:38.780Z,1.72
2018-09-17T13:48:06.450Z,1.70
2018-09-17T13:50:34.104Z,1.85
2018-09-17T13:53:01.781Z,1.55
2018-09-17T13:55:29.446Z,1.60
2018-09-17T13:57:57.083Z,2.20
2018-09-17T14:00:24.708Z,1.47
2018-09-17T14:02:52.412Z,1.65
2018-09-17T14:05:20.069Z,1.55
2018-09-17T14:07:47.752Z,1.65
2018-09-17T14:10:15.411Z,1.60
2018-09-17T14:12:42.996Z,1.90
2018-09-17T14:15:10.631Z,2.00
2018-09-17T14:17:38.310Z,1.77
2018-09-17T14:20:05.994Z,1.70
2018-09-17T14:22:33.622Z,1.52
2018-09-17T14:25:01.306Z,1.80
2018-09-17T14:27:29.107Z,1.90
2018-09-17T14:29:56.791Z,1.85
2018-09-17T14:34:36.972Z,1.60
2018-09-17T14:37:04.609Z,1.50
2018-09-17T14:39:32.227Z,1.37
2018-09-17T14:41:59.857Z,1.70
2018-09-17T14:44:27.562Z,1.75
2018-09-17T14:46:55.180Z,1.50
2018-09-17T14:49:22.841Z,1.40
2018-09-17T14:51:50.470Z,1.67
2018-09-17T14:54:18.142Z,1.52
2018-09-17T14:56:45.756Z,1.60
2018-09-17T14:59:13.386Z,1.75
2018-09-17T15:01:41.135Z,1.67
2018-09-17T15:04:08.692Z,1.90
2018-09-17T15:06:36.488Z,1.40
2018-09-17T15:09:06.216Z,1.52
2018-09-17T15:11:33.885Z,1.60
2018-09-17T15:14:01.573Z,1.30
2018-09-17T15:16:29.354Z,1.30
2018-09-17T15:18:56.855Z,1.50
2018-09-17T15:21:24.502Z,1.60
2018-09-17T15:23:52.207Z,1.70
2018-09-17T15:26:19.832Z,1.72
2018-09-17T15:28:47.359Z,1.52
2018-09-17T15:31:15.116Z,1.80
2018-09-17T15:33:42.791Z,1.87
2018-09-17T15:36:10.385Z,1.67
2018-09-17T15:38:38.012Z,1.65
2018-09-17T15:41:05.796Z,1.45
2018-09-17T15:43:33.296Z,1.57
2018-09-17T15:46:00.959Z,1.40
2018-09-17T15:48:28.570Z,1.47
2018-09-17T15:50:56.199Z,1.20
2018-09-17T15:53:23.837Z,1.55
2018-09-17T15:55:51.525Z,1.30
2018-09-17T15:58:19.202Z,1.80
2018-09-17T16:00:46.815Z,1.72
2018-09-17T16:03:14.446Z,1.72
2018-09-17T16:05:42.170Z,1.47
2018-09-17T16:08:09.766Z,1.85
2018-09-17T16:10:37.361Z,1.45
2018-09-17T16:13:04.992Z,1.60
2018-09-17T16:15:32.653Z,1.70
2018-09-17T16:18:00.291Z,1.65
2018-09-17T16:20:27.886Z,1.85
2018-09-17T16:22:55.467Z,1.70
2018-09-17T16:25:29.714Z,1.60
2018-09-17T16:27:57.375Z,1.72
2018-09-17T16:30:24.983Z,2.02
2018-09-17T16:32:52.607Z,1.80
2018-09-17T16:35:20.245Z,1.72
2018-09-17T16:37:47.844Z,1.60
2018-09-17T16:40:15.502Z,1.90
2018-09-17T16:42:43.137Z,1.90
2018-09-17T16:45:10.763Z,1.92
2018-09-17T16:47:38.351Z,2.00
2018-09-17T16:50:05.991Z,2.20
2018-09-17T16:52:33.629Z,3.02
2018-09-17T16:55:01.283Z,2.45
2018-09-17T16:57:28.896Z,2.47
2018-09-17T16:59:56.522Z,2.35
2018-09-17T17:02:24.186Z,2.30
2018-09-17T17:04:51.831Z,1.98
2018-09-17T17:07:19.478Z,2.45
2018-09-17T17:09:47.125Z,2.00
2018-09-17T17:12:14.734Z,1.92
2018-09-17T17:14:42.399Z,2.17
2018-09-17T17:17:10.022Z,1.98
2018-09-17T17:19:44.294Z,2.27
2018-09-17T17:22:11.975Z,2.08
2018-09-17T17:24:39.578Z,1.98
2018-09-17T17:27:07.215Z,1.65
2018-09-17T17:29:34.879Z,1.42
2018-09-17T17:32:02.523Z,1.87
2018-09-17T17:34:30.148Z,1.80
2018-09-17T17:36:57.844Z,1.90
2018-09-17T17:39:25.670Z,1.63
2018-09-17T17:41:52.999Z,1.83
2018-09-17T17:44:20.632Z,1.47
2018-09-17T17:46:48.280Z,1.87
2018-09-17T17:49:15.818Z,2.10
2018-09-17T17:51:43.516Z,2.10
2018-09-17T17:54:11.119Z,1.70
2018-09-17T17:56:38.790Z,2.00
2018-09-17T17:59:06.370Z,1.57
2018-09-17T18:01:34.015Z,2.03
2018-09-17T18:04:01.726Z,2.33
2018-09-17T18:06:29.258Z,2.03
2018-09-17T18:08:56.868Z,2.07
2018-09-17T18:11:24.486Z,2.10
2018-09-17T18:13:52.108Z,2.17
2018-09-17T18:16:29.470Z,2.00
2018-09-17T18:18:57.671Z,2.30
2018-09-17T18:21:25.298Z,1.83
2018-09-17T18:23:52.898Z,2.40
2018-09-17T18:26:20.499Z,2.23
2018-09-17T18:28:48.043Z,2.13
2018-09-17T18:31:15.658Z,2.40
2018-09-17T18:33:43.255Z,2.43
2018-09-17T18:36:10.903Z,2.37
2018-09-17T18:38:38.506Z,2.50
2018-09-17T18:41:06.189Z,2.53
2018-09-17T18:43:33.832Z,2.30
2018-09-17T18:46:01.431Z,2.10
2018-09-17T18:48:29.038Z,2.20
2018-09-17T18:50:56.742Z,2.23
2018-09-17T18:53:24.189Z,2.30
2018-09-17T18:55:51.761Z,2.60
2018-09-17T18:58:19.382Z,2.63
2018-09-17T19:00:47.026Z,2.20
2018-09-17T19:03:14.889Z,2.80
2018-09-17T19:05:42.503Z,2.40
2018-09-17T19:08:10.131Z,2.37
2018-09-17T19:10:37.805Z,2.37
2018-09-17T19:13:05.371Z,2.40
2018-09-17T19:15:38.422Z,2.40
2018-09-17T19:18:11.724Z,2.43
2018-09-17T19:20:39.603Z,2.70
2018-09-17T19:23:12.576Z,2.30
2018-09-17T19:25:40.220Z,2.30
2018-09-17T19:30:16.680Z,2.10
2018-09-17T19:32:44.514Z,2.23
2018-09-17T19:35:12.244Z,2.40
2018-09-17T19:37:45.534Z,2.43
2018-09-17T19:40:17.458Z,2.37
2018-09-17T19:42:46.342Z,2.23
2018-09-17T19:45:19.477Z,2.10
2018-09-17T19:47:47.422Z,2.00
2018-09-17T19:50:20.727Z,2.10
2018-09-17T19:52:48.357Z,2.00
2018-09-17T19:55:15.987Z,2.17
2018-09-17T19:57:49.121Z,2.03
2018-09-17T20:00:16.805Z,1.87
2018-09-17T20:02:44.435Z,2.30
2018-09-17T20:05:17.743Z,1.97
2018-09-17T20:07:45.342Z,2.10
2018-09-17T20:10:12.977Z,2.13
2018-09-17T20:12:40.551Z,1.90
2018-09-17T20:15:08.264Z,2.37
2018-09-17T20:17:36.023Z,2.07
2018-09-17T20:20:03.742Z,2.07
2018-09-17T20:22:31.370Z,1.83
2018-09-17T20:24:58.981Z,2.10
2018-09-17T20:27:26.892Z,1.63
2018-09-17T20:29:54.555Z,1.77
2018-09-17T20:32:22.182Z,1.90
2018-09-17T20:34:49.800Z,1.80
2018-09-17T20:37:17.442Z,2.03
2018-09-17T20:39:45.058Z,2.00
2018-09-17T20:42:12.722Z,2.03
2018-09-17T20:44:40.327Z,1.70
2018-09-17T20:47:07.978Z,2.03
2018-09-17T20:49:35.652Z,2.00
2018-09-17T20:52:03.314Z,1.77
2018-09-17T20:54:30.907Z,1.97
2018-09-17T20:56:58.520Z,2.10
2018-09-17T20:59:26.129Z,2.00
2018-09-17T21:01:53.739Z,2.10
2018-09-17T21:04:21.269Z,2.13
2018-09-17T21:06:48.891Z,2.00
2018-09-17T21:09:16.562Z,1.70
2018-09-17T21:11:44.093Z,2.00
2018-09-17T21:14:11.662Z,2.30
2018-09-17T21:16:39.352Z,2.47
2018-09-17T21:19:06.988Z,2.00
2018-09-17T21:21:34.694Z,1.93
2018-09-17T21:24:02.257Z,1.90
2018-09-17T21:26:29.793Z,2.30
2018-09-17T21:28:57.379Z,1.90
2018-09-17T21:31:24.987Z,1.97
2018-09-17T21:33:52.616Z,1.83
2018-09-17T21:36:20.306Z,1.93
2018-09-17T21:38:47.935Z,1.80
2018-09-17T21:41:15.561Z,2.27
2018-09-17T21:43:43.085Z,1.80
2018-09-17T21:46:10.994Z,2.10
2018-09-17T21:48:38.659Z,1.80
2018-09-17T21:51:06.318Z,2.07
2018-09-17T21:53:33.956Z,2.10
2018-09-17T21:56:01.616Z,1.93
2018-09-17T21:58:29.247Z,2.13
2018-09-17T22:01:03.062Z,1.93
2018-09-17T22:03:32.811Z,2.10
2018-09-17T22:06:00.499Z,1.90
2018-09-17T22:08:28.554Z,1.60
2018-09-17T22:10:56.229Z,1.73
2018-09-17T22:13:23.826Z,2.00
2018-09-17T22:15:51.413Z,1.60
2018-09-17T22:18:19.063Z,1.90
2018-09-17T22:20:46.676Z,1.90
2018-09-17T22:23:14.170Z,1.70
2018-09-17T22:25:41.906Z,2.00
2018-09-17T22:28:09.465Z,1.53
2018-09-17T22:30:37.214Z,1.83
2018-09-17T22:33:04.931Z,2.07
2018-09-17T22:35:32.590Z,1.60
2018-09-17T22:38:00.094Z,2.20
2018-09-17T22:40:27.695Z,1.70
2018-09-17T22:42:55.219Z,1.67
2018-09-17T22:45:22.918Z,1.70
2018-09-17T22:47:50.506Z,2.00
2018-09-17T22:50:18.139Z,1.97
2018-09-17T22:52:45.782Z,1.70
2018-09-17T22:55:14.159Z,1.80
2018-09-17T22:57:41.780Z,1.60
2018-09-17T23:00:09.391Z,1.93
2018-09-17T23:02:37.006Z,1.90
2018-09-17T23:05:04.667Z,2.10
2018-09-17T23:07:32.386Z,2.35
2018-09-17T23:10:00.050Z,2.50
2018-09-17T23:12:27.683Z,1.90
2018-09-17T23:14:55.207Z,1.60
2018-09-17T23:17:22.850Z,2.40
2018-09-17T23:19:50.543Z,2.00
2018-09-17T23:22:18.262Z,1.60
2018-09-17T23:24:45.842Z,1.57
2018-09-17T23:27:13.620Z,1.53
2018-09-17T23:29:41.235Z,1.23
2018-09-17T23:32:08.879Z,1.50
2018-09-17T23:34:36.469Z,1.77
2018-09-17T23:37:03.997Z,1.43
2018-09-17T23:39:31.611Z,2.00
2018-09-17T23:41:59.138Z,1.60
2018-09-17T23:44:27.028Z,2.02
2018-09-17T23:46:54.629Z,1.60
2018-09-17T23:49:22.250Z,1.73
2018-09-17T23:51:49.761Z,2.02
2018-09-17T23:54:17.343Z,2.03
2018-09-17T23:56:44.958Z,1.80
2018-09-17T23:59:12.482Z,1.27
